createdAt,value
2022-08-07T00:00:24.636Z,16.85
2022-08-07T00:02:51.037Z,16.79
2022-08-07T00:05:20.046Z,16.73
2022-08-07T00:07:47.064Z,16.60
2022-08-07T00:10:25.990Z,16.57
2022-08-07T00:13:00.306Z,16.49
2022-08-07T00:15:36.079Z,16.41
2022-08-07T00:18:19.824Z,16.39
2022-08-07T00:20:51.407Z,16.36
2022-08-07T00:23:18.203Z,16.25
2022-08-07T00:25:52.055Z,16.23
2022-08-07T00:28:33.450Z,16.14
2022-08-07T00:31:06.159Z,16.11
2022-08-07T00:33:39.893Z,16.07
2022-08-07T00:36:08.127Z,16.03
2022-08-07T00:38:36.673Z,15.95
2022-08-07T00:41:05.317Z,15.93
2022-08-07T00:43:59.032Z,15.86
2022-08-07T00:46:22.969Z,15.82
2022-08-07T00:48:51.716Z,15.81
2022-08-07T00:51:18.338Z,15.78
2022-08-07T00:53:50.697Z,15.68
2022-08-07T00:56:23.431Z,15.70
2022-08-07T00:58:56.844Z,15.65
2022-08-07T01:01:24.158Z,15.59
2022-08-07T01:03:55.864Z,15.53
2022-08-07T01:06:25.080Z,15.50
2022-08-07T01:08:53.241Z,15.47
2022-08-07T01:12:09.225Z,15.46
2022-08-07T01:14:08.265Z,15.50
2022-08-07T01:16:36.638Z,15.46
2022-08-07T01:19:05.060Z,15.39
2022-08-07T01:21:46.583Z,15.38
2022-08-07T01:24:14.507Z,15.35
2022-08-07T01:26:52.089Z,15.28
2022-08-07T01:29:23.001Z,15.24
2022-08-07T01:31:50.355Z,15.25
2022-08-07T01:34:17.907Z,15.18
2022-08-07T01:36:45.635Z,15.18
2022-08-07T01:39:19.515Z,15.18
2022-08-07T01:41:55.234Z,15.10
2022-08-07T01:44:34.096Z,15.09
2022-08-07T01:47:14.195Z,15.10
2022-08-07T01:49:41.282Z,15.04
2022-08-07T01:52:10.027Z,15.05
2022-08-07T01:54:40.999Z,14.99
2022-08-07T01:57:24.813Z,14.97
2022-08-07T01:59:57.593Z,14.93
2022-08-07T02:02:32.482Z,14.91
2022-08-07T02:05:04.719Z,14.89
2022-08-07T02:07:49.857Z,14.85
2022-08-07T02:10:22.710Z,14.87
2022-08-07T02:12:50.862Z,14.81
2022-08-07T02:15:22.620Z,14.79
2022-08-07T02:17:51.724Z,14.77
2022-08-07T02:20:23.325Z,14.75
2022-08-07T02:22:55.074Z,14.72
2022-08-07T02:25:32.194Z,14.71
2022-08-07T02:28:12.002Z,14.68
2022-08-07T02:30:40.498Z,14.66
2022-08-07T02:33:09.469Z,14.62
2022-08-07T02:36:29.286Z,14.61
2022-08-07T02:38:31.775Z,14.57
2022-08-07T02:40:59.781Z,14.51
2022-08-07T02:43:27.886Z,14.51
2022-08-07T02:45:58.231Z,14.47
2022-08-07T02:48:26.838Z,14.45
2022-08-07T02:50:55.954Z,14.39
2022-08-07T02:53:28.465Z,14.35
2022-08-07T02:56:03.451Z,14.33
2022-08-07T02:58:33.310Z,14.26
2022-08-07T03:01:02.453Z,14.16
2022-08-07T03:03:49.459Z,14.20
2022-08-07T03:06:32.048Z,14.18
2022-08-07T03:09:02.097Z,14.16
2022-08-07T03:11:32.647Z,14.13
2022-08-07T03:14:01.570Z,14.13
2022-08-07T03:16:30.411Z,14.06
2022-08-07T03:18:57.457Z,14.06
2022-08-07T03:21:24.536Z,14.09
2022-08-07T03:24:21.039Z,14.13
2022-08-07T03:26:58.091Z,14.11
2022-08-07T03:29:30.724Z,14.11
2022-08-07T03:32:02.541Z,14.15
2022-08-07T03:34:31.576Z,14.13
2022-08-07T03:37:11.979Z,14.10
2022-08-07T03:39:45.838Z,14.08
2022-08-07T03:42:27.115Z,14.04
2022-08-07T03:44:58.071Z,14.05
2022-08-07T03:47:45.032Z,14.02
2022-08-07T03:50:17.454Z,14.00
2022-08-07T03:52:51.243Z,13.99
2022-08-07T03:55:18.084Z,13.95
2022-08-07T03:58:35.293Z,13.97
2022-08-07T04:00:35.582Z,13.96
2022-08-07T04:03:03.764Z,13.97
2022-08-07T04:05:40.734Z,13.90
2022-08-07T04:08:15.994Z,13.88
2022-08-07T04:10:54.687Z,13.84
2022-08-07T04:14:09.557Z,13.83
2022-08-07T04:16:30.946Z,13.77
2022-08-07T04:19:01.613Z,13.72
2022-08-07T04:21:32.027Z,13.71
2022-08-07T04:24:06.066Z,13.67
2022-08-07T04:26:34.132Z,13.66
2022-08-07T04:29:00.631Z,13.68
2022-08-07T04:32:02.621Z,13.68
2022-08-07T04:34:17.431Z,13.69
2022-08-07T04:36:54.325Z,13.71
2022-08-07T04:39:25.835Z,13.72
2022-08-07T04:41:52.699Z,13.74
2022-08-07T04:44:19.407Z,13.69
2022-08-07T04:47:08.274Z,13.73
2022-08-07T04:50:03.645Z,13.72
2022-08-07T04:52:46.653Z,13.71
2022-08-07T04:58:12.162Z,13.73
2022-08-07T04:59:09.229Z,13.71
2022-08-07T05:01:37.235Z,13.73
2022-08-07T05:04:12.378Z,13.71
2022-08-07T05:06:56.255Z,13.67
2022-08-07T05:09:45.888Z,13.67
2022-08-07T05:12:26.819Z,13.75
2022-08-07T05:15:03.513Z,13.79
2022-08-07T05:17:50.861Z,13.85
2022-08-07T05:20:27.061Z,13.92
2022-08-07T05:22:58.018Z,13.99
2022-08-07T05:26:10.856Z,14.06
2022-08-07T05:28:19.935Z,14.14
2022-08-07T05:30:50.964Z,14.19
2022-08-07T05:33:21.549Z,14.26
2022-08-07T05:35:51.154Z,14.34
2022-08-07T05:39:00.018Z,14.38
2022-08-07T05:41:14.115Z,14.47
2022-08-07T05:44:08.092Z,14.51
2022-08-07T05:46:37.627Z,14.57
2022-08-07T05:49:11.606Z,14.61
2022-08-07T05:51:43.634Z,14.67
2022-08-07T05:54:31.233Z,14.70
2022-08-07T05:57:02.571Z,14.75
2022-08-07T05:59:47.322Z,14.80
2022-08-07T06:02:29.259Z,14.85
2022-08-07T06:05:01.734Z,14.91
2022-08-07T06:08:13.605Z,14.94
2022-08-07T06:10:18.219Z,14.97
2022-08-07T06:12:45.507Z,15.02
2022-08-07T06:15:16.031Z,15.09
2022-08-07T06:17:53.902Z,15.08
2022-08-07T06:20:25.569Z,15.16
2022-08-07T06:23:47.174Z,15.20
2022-08-07T06:25:57.097Z,15.23
2022-08-07T06:28:27.589Z,15.30
2022-08-07T06:30:55.794Z,15.36
2022-08-07T06:33:24.123Z,15.42
2022-08-07T06:36:13.264Z,15.46
2022-08-07T06:38:37.605Z,15.54
2022-08-07T06:41:12.966Z,15.60
2022-08-07T06:43:46.480Z,15.65
2022-08-07T06:46:35.334Z,15.68
2022-08-07T06:49:04.441Z,15.76
2022-08-07T06:51:34.679Z,15.87
2022-08-07T06:55:28.553Z,15.89
2022-08-07T06:56:54.532Z,15.94
2022-08-07T07:00:14.546Z,15.99
2022-08-07T07:02:48.905Z,16.08
2022-08-07T07:05:07.124Z,16.13
2022-08-07T07:07:59.858Z,16.18
2022-08-07T07:10:33.430Z,16.26
2022-08-07T07:13:07.963Z,16.33
2022-08-07T07:15:43.135Z,16.40
2022-08-07T07:18:47.816Z,16.46
2022-08-07T07:21:19.751Z,16.50
2022-08-07T07:24:09.588Z,16.57
2022-08-07T07:26:37.884Z,16.63
2022-08-07T07:29:40.315Z,16.66
2022-08-07T07:31:58.143Z,16.77
2022-08-07T07:34:31.996Z,16.87
2022-08-07T07:37:14.348Z,16.93
2022-08-07T07:39:54.893Z,16.95
2022-08-07T07:42:32.486Z,17.04
2022-08-07T07:45:02.319Z,17.12
2022-08-07T07:47:30.004Z,17.21
2022-08-07T07:50:36.039Z,17.29
2022-08-07T07:53:00.705Z,17.35
2022-08-07T07:55:37.138Z,17.43
2022-08-07T07:58:05.797Z,17.54
2022-08-07T08:00:34.224Z,17.57
2022-08-07T08:03:16.775Z,17.61
2022-08-07T08:05:57.404Z,17.67
2022-08-07T08:08:35.213Z,17.76
2022-08-07T08:11:09.189Z,17.84
2022-08-07T08:13:54.680Z,17.92
2022-08-07T08:16:30.021Z,18.01
2022-08-07T08:19:00.540Z,18.14
2022-08-07T08:22:07.824Z,18.28
2022-08-07T08:25:09.522Z,18.47
2022-08-07T08:27:56.677Z,18.83
2022-08-07T08:30:30.327Z,19.20
2022-08-07T08:33:01.852Z,19.59
2022-08-07T08:35:39.495Z,20.00
2022-08-07T08:38:15.072Z,20.44
2022-08-07T08:40:49.727Z,20.83
2022-08-07T08:43:32.094Z,21.21
2022-08-07T08:46:44.916Z,21.64
2022-08-07T08:49:33.325Z,22.02
2022-08-07T08:52:16.670Z,22.43
2022-08-07T08:55:08.095Z,22.70
2022-08-07T08:57:46.851Z,22.99
2022-08-07T09:00:14.788Z,23.27
2022-08-07T09:02:52.487Z,23.52
2022-08-07T09:05:31.990Z,23.71
2022-08-07T09:08:28.200Z,23.91
2022-08-07T09:11:13.909Z,23.95
2022-08-07T09:14:09.616Z,24.14
2022-08-07T09:17:04.729Z,24.27
2022-08-07T09:19:55.132Z,24.52
2022-08-07T09:24:33.531Z,24.77
2022-08-07T09:25:54.380Z,24.90
2022-08-07T09:30:02.368Z,25.09
2022-08-07T09:31:48.536Z,25.37
2022-08-07T09:34:27.306Z,25.42
2022-08-07T09:37:05.256Z,25.40
2022-08-07T09:39:54.190Z,25.61
2022-08-07T09:42:52.432Z,25.89
2022-08-07T09:47:49.519Z,26.04
2022-08-07T09:48:43.914Z,26.31
2022-08-07T09:52:10.284Z,26.49
2022-08-07T09:54:45.982Z,26.69
2022-08-07T09:57:29.870Z,26.57
2022-08-07T10:00:14.487Z,26.58
2022-08-07T10:04:05.602Z,26.20
2022-08-07T10:06:17.490Z,26.22
2022-08-07T10:09:00.365Z,26.38
2022-08-07T10:12:01.723Z,26.61
2022-08-07T10:14:56.982Z,26.32
2022-08-07T10:18:01.293Z,25.97
2022-08-07T10:20:42.372Z,25.88
2022-08-07T10:24:05.796Z,26.07
2022-08-07T10:27:12.313Z,26.30
2022-08-07T10:30:04.938Z,26.58
2022-08-07T10:32:53.644Z,26.93
2022-08-07T10:35:56.304Z,27.27
2022-08-07T10:38:48.710Z,27.53
2022-08-07T10:41:47.412Z,27.64
2022-08-07T10:44:38.314Z,27.70
2022-08-07T10:47:53.869Z,27.92
2022-08-07T10:50:29.378Z,28.07
2022-08-07T10:53:10.964Z,28.14
2022-08-07T10:55:50.709Z,27.83
2022-08-07T10:58:59.662Z,27.89
2022-08-07T11:01:51.617Z,28.35
2022-08-07T11:04:40.680Z,28.70
2022-08-07T11:08:00.425Z,28.93
2022-08-07T11:10:40.782Z,28.97
2022-08-07T11:14:42.510Z,29.07
2022-08-07T11:16:36.231Z,29.28
2022-08-07T11:19:41.360Z,29.16
2022-08-07T11:22:27.376Z,29.28
2022-08-07T11:25:17.806Z,29.17
2022-08-07T11:28:03.222Z,29.26
2022-08-07T11:30:42.642Z,29.13
2022-08-07T11:33:59.082Z,28.88
2022-08-07T11:36:20.396Z,28.85
2022-08-07T11:39:20.583Z,28.99
2022-08-07T11:42:29.910Z,29.15
2022-08-07T11:45:00.165Z,29.10
2022-08-07T11:47:56.595Z,29.03
2022-08-07T11:50:57.287Z,29.11
2022-08-07T11:54:01.229Z,29.35
2022-08-07T11:56:40.230Z,29.21
2022-08-07T12:00:12.602Z,29.38
2022-08-07T12:02:31.097Z,29.53
2022-08-07T12:05:28.921Z,29.57
2022-08-07T12:08:25.852Z,29.88
2022-08-07T12:11:21.110Z,29.75
2022-08-07T12:14:05.430Z,29.81
2022-08-07T12:16:36.807Z,29.91
2022-08-07T12:19:21.803Z,30.11
2022-08-07T12:22:37.180Z,30.16
2022-08-07T12:26:21.875Z,30.71
2022-08-07T12:28:49.822Z,30.85
2022-08-07T12:31:52.706Z,30.15
2022-08-07T12:34:18.261Z,30.07
2022-08-07T12:36:49.992Z,29.98
2022-08-07T12:39:44.192Z,29.75
2022-08-07T12:42:08.887Z,29.73
2022-08-07T12:44:43.041Z,29.72
2022-08-07T12:47:37.838Z,29.87
2022-08-07T12:50:48.932Z,30.20
2022-08-07T12:54:02.652Z,30.46
2022-08-07T12:56:39.968Z,30.35
2022-08-07T12:59:08.653Z,30.05
2022-08-07T13:02:09.913Z,29.43
2022-08-07T13:06:01.789Z,28.84
2022-08-07T13:08:28.193Z,28.61
2022-08-07T13:11:26.047Z,28.94
2022-08-07T13:14:31.072Z,29.22
2022-08-07T13:17:05.855Z,29.02
2022-08-07T13:19:51.431Z,29.31
2022-08-07T13:22:31.175Z,29.54
2022-08-07T13:25:24.282Z,29.85
2022-08-07T13:28:24.017Z,30.00
2022-08-07T13:31:01.965Z,29.89
2022-08-07T13:34:34.221Z,30.07
2022-08-07T13:36:47.606Z,30.43
2022-08-07T13:40:33.338Z,30.33
2022-08-07T13:42:25.473Z,29.99
2022-08-07T13:45:11.785Z,29.89
2022-08-07T13:48:05.498Z,30.13
2022-08-07T13:50:32.540Z,30.17
2022-08-07T13:53:03.868Z,30.17
2022-08-07T13:55:31.087Z,30.21
2022-08-07T13:58:31.509Z,30.50
2022-08-07T14:01:10.652Z,30.57
2022-08-07T14:04:07.634Z,30.69
2022-08-07T14:06:35.766Z,30.83
2022-08-07T14:09:04.937Z,30.74
2022-08-07T14:11:53.374Z,30.86
2022-08-07T14:14:30.627Z,30.83
2022-08-07T14:17:32.401Z,30.83
2022-08-07T14:20:39.310Z,30.73
2022-08-07T14:22:51.206Z,30.83
2022-08-07T14:25:24.226Z,30.92
2022-08-07T14:28:10.937Z,30.83
2022-08-07T14:30:45.682Z,30.22
2022-08-07T14:33:15.131Z,29.85
2022-08-07T14:35:42.920Z,29.98
2022-08-07T14:38:26.626Z,30.16
2022-08-07T14:41:05.106Z,30.11
2022-08-07T14:43:58.071Z,30.05
2022-08-07T14:49:56.003Z,29.86
2022-08-07T14:52:03.964Z,29.65
2022-08-07T14:54:54.265Z,29.66
2022-08-07T14:57:24.690Z,29.56
2022-08-07T15:00:05.405Z,29.76
2022-08-07T15:02:34.583Z,29.81
2022-08-07T15:05:02.905Z,29.87
2022-08-07T15:07:47.632Z,29.80
2022-08-07T15:13:17.414Z,29.70
2022-08-07T15:18:42.936Z,29.77
2022-08-07T15:21:58.540Z,29.98
2022-08-07T15:25:15.313Z,30.05
2022-08-07T15:27:08.338Z,30.01
2022-08-07T15:30:08.644Z,29.89
2022-08-07T15:35:17.833Z,29.73
2022-08-07T15:38:17.630Z,29.60
2022-08-07T15:40:38.235Z,29.65
2022-08-07T15:46:31.833Z,30.10
2022-08-07T15:49:13.090Z,30.30
2022-08-07T15:54:30.823Z,30.30
2022-08-07T15:57:02.771Z,30.23
2022-08-07T15:59:39.689Z,30.14
2022-08-07T16:02:22.238Z,30.15
2022-08-07T16:05:00.202Z,30.21
2022-08-07T16:08:32.055Z,30.30
2022-08-07T16:10:21.589Z,30.43
2022-08-07T16:13:01.356Z,30.35
2022-08-07T16:15:57.996Z,30.31
2022-08-07T16:19:02.853Z,29.61
2022-08-07T16:22:03.317Z,29.67
2022-08-07T16:24:40.651Z,29.54
2022-08-07T16:27:40.556Z,29.55
2022-08-07T16:30:30.171Z,29.50
2022-08-07T16:34:03.450Z,29.47
2022-08-07T16:36:31.344Z,29.44
2022-08-07T16:39:49.255Z,29.36
2022-08-07T16:42:34.218Z,29.49
2022-08-07T16:46:40.304Z,29.54
2022-08-07T16:50:28.672Z,29.41
2022-08-07T16:52:51.072Z,29.32
2022-08-07T16:55:14.879Z,29.10
2022-08-07T16:58:04.147Z,29.07
2022-08-07T17:00:37.352Z,28.97
2022-08-07T17:03:17.625Z,28.86
2022-08-07T17:06:28.773Z,28.75
2022-08-07T17:09:10.808Z,28.59
2022-08-07T17:12:05.141Z,28.46
2022-08-07T17:14:46.475Z,28.29
2022-08-07T17:17:46.050Z,28.16
2022-08-07T17:20:54.705Z,27.97
2022-08-07T17:23:50.268Z,27.78
2022-08-07T17:26:22.858Z,27.55
2022-08-07T17:30:12.838Z,27.33
2022-08-07T17:32:14.058Z,27.27
2022-08-07T17:35:51.508Z,27.19
2022-08-07T17:38:17.872Z,27.08
2022-08-07T17:42:01.859Z,26.95
2022-08-07T17:44:33.575Z,26.74
2022-08-07T17:47:16.904Z,26.61
2022-08-07T17:50:16.384Z,26.48
2022-08-07T17:53:07.364Z,26.35
2022-08-07T17:56:06.390Z,26.20
2022-08-07T17:58:46.284Z,26.02
2022-08-07T18:01:21.450Z,25.95
2022-08-07T18:04:16.350Z,25.88
2022-08-07T18:07:19.262Z,25.81
2022-08-07T18:10:04.579Z,25.69
2022-08-07T18:12:42.032Z,25.54
2022-08-07T18:15:14.755Z,25.42
2022-08-07T18:18:45.426Z,25.34
2022-08-07T18:21:06.659Z,25.25
2022-08-07T18:23:50.849Z,25.14
2022-08-07T18:26:40.652Z,25.05
2022-08-07T18:30:06.832Z,25.01
2022-08-07T18:32:13.374Z,24.91
2022-08-07T18:35:05.076Z,24.78
2022-08-07T18:38:55.881Z,24.71
2022-08-07T18:40:50.287Z,24.61
2022-08-07T18:44:02.915Z,24.48
2022-08-07T18:46:42.933Z,24.33
2022-08-07T18:50:31.818Z,24.24
2022-08-07T18:52:56.896Z,24.13
2022-08-07T18:55:55.829Z,24.05
2022-08-07T18:58:51.949Z,24.00
2022-08-07T19:02:33.049Z,23.92
2022-08-07T19:04:37.416Z,23.89
2022-08-07T19:07:35.021Z,23.75
2022-08-07T19:10:14.861Z,23.70
2022-08-07T19:13:11.827Z,23.56
2022-08-07T19:16:05.757Z,23.46
2022-08-07T19:18:54.255Z,23.41
2022-08-07T19:22:05.299Z,23.37
2022-08-07T19:24:44.436Z,23.33
2022-08-07T19:28:58.189Z,23.25
2022-08-07T19:31:04.683Z,23.17
2022-08-07T19:33:01.579Z,23.01
2022-08-07T19:35:38.720Z,22.93
2022-08-07T19:38:15.763Z,22.89
2022-08-07T19:40:49.959Z,22.81
2022-08-07T19:43:48.581Z,22.65
2022-08-07T19:46:12.056Z,22.66
2022-08-07T19:48:44.412Z,22.60
2022-08-07T19:51:50.920Z,22.50
2022-08-07T19:54:35.262Z,22.46
2022-08-07T19:58:01.099Z,22.40
2022-08-07T19:59:53.407Z,22.34
2022-08-07T20:02:34.714Z,22.28
2022-08-07T20:05:08.725Z,22.19
2022-08-07T20:07:45.903Z,22.15
2022-08-07T20:10:38.366Z,22.17
2022-08-07T20:13:15.752Z,22.05
2022-08-07T20:15:50.001Z,21.95
2022-08-07T20:18:20.080Z,21.89
2022-08-07T20:20:46.956Z,21.84
2022-08-07T20:23:33.107Z,21.83
2022-08-07T20:26:09.980Z,21.76
2022-08-07T20:28:39.689Z,21.72
2022-08-07T20:31:21.187Z,21.67
2022-08-07T20:33:57.331Z,21.66
2022-08-07T20:36:26.975Z,21.55
2022-08-07T20:39:00.534Z,21.50
2022-08-07T20:41:38.329Z,21.46
2022-08-07T20:44:12.340Z,21.44
2022-08-07T20:46:43.772Z,21.41
2022-08-07T20:49:57.995Z,21.32
2022-08-07T20:52:00.557Z,21.28
2022-08-07T20:54:30.164Z,21.15
2022-08-07T20:57:03.136Z,21.15
2022-08-07T21:00:07.581Z,21.09
2022-08-07T21:02:41.482Z,21.08
2022-08-07T21:05:25.782Z,21.02
2022-08-07T21:08:36.647Z,20.99
2022-08-07T21:11:14.322Z,20.90
2022-08-07T21:14:16.743Z,20.85
2022-08-07T21:18:02.033Z,20.77
2022-08-07T21:20:05.584Z,20.74
2022-08-07T21:22:34.413Z,20.72
2022-08-07T21:25:04.694Z,20.70
2022-08-07T21:27:53.791Z,20.67
2022-08-07T21:30:23.761Z,20.65
2022-08-07T21:33:11.693Z,20.58
2022-08-07T21:36:04.999Z,20.54
2022-08-07T21:38:46.440Z,20.47
2022-08-07T21:41:37.767Z,20.41
2022-08-07T21:44:32.012Z,20.39
2022-08-07T21:47:07.499Z,20.34
2022-08-07T21:50:03.003Z,20.29
2022-08-07T21:52:48.142Z,20.27
2022-08-07T21:55:29.868Z,20.28
2022-08-07T21:58:08.047Z,20.24
2022-08-07T22:00:42.421Z,20.21
2022-08-07T22:03:31.040Z,20.11
2022-08-07T22:06:07.492Z,20.12
2022-08-07T22:08:56.846Z,20.02
2022-08-07T22:11:24.471Z,19.97
2022-08-07T22:13:59.960Z,19.95
2022-08-07T22:16:46.954Z,19.94
2022-08-07T22:19:29.605Z,19.94
2022-08-07T22:22:17.753Z,19.92
2022-08-07T22:24:52.793Z,19.88
2022-08-07T22:27:51.200Z,19.85
2022-08-07T22:30:18.863Z,19.78
2022-08-07T22:32:57.868Z,19.77
2022-08-07T22:35:39.455Z,19.72
2022-08-07T22:38:31.684Z,19.70
2022-08-07T22:41:09.754Z,19.61
2022-08-07T22:43:42.563Z,19.51
2022-08-07T22:46:42.727Z,19.52
2022-08-07T22:49:20.312Z,19.52
2022-08-07T22:52:19.528Z,19.48
2022-08-07T22:55:29.884Z,19.48
2022-08-07T22:58:25.015Z,19.46
2022-08-07T23:01:21.854Z,19.43
2022-08-07T23:04:04.510Z,19.38
2022-08-07T23:06:42.250Z,19.32
2022-08-07T23:10:00.650Z,19.30
2022-08-07T23:12:50.780Z,19.27
2022-08-07T23:16:06.956Z,19.26
2022-08-07T23:18:43.307Z,19.22
2022-08-07T23:21:36.662Z,19.21
2022-08-07T23:24:24.614Z,19.20
2022-08-07T23:27:33.226Z,19.17
2022-08-07T23:30:37.395Z,19.09
2022-08-07T23:34:36.480Z,19.02
2022-08-07T23:36:17.320Z,19.01
2022-08-07T23:39:04.888Z,19.00
2022-08-07T23:42:08.438Z,19.00
2022-08-07T23:45:07.286Z,19.00
2022-08-07T23:48:05.395Z,18.98
2022-08-07T23:50:43.272Z,18.94
2022-08-07T23:53:22.899Z,18.87
2022-08-07T23:56:21.169Z,18.87
2022-08-07T23:59:10.266Z,18.87
